TimePDT,TemperatureF,Dew PointF,Humidity,Sea Level PressureIn,VisibilityMPH,Wind Direction,Wind SpeedMPH,Gust SpeedMPH,PrecipitationIn,Events,Conditions,WindDirDegrees,DateUTC
12:53 AM,45.0,36.0,71,30.17,10.0,Calm,Calm,-,N/A,,Overcast,0,2013-04-30 07:53:00
1:53 AM,44.1,32.0,63,30.17,10.0,Calm,Calm,-,0.00,,Overcast,0,2013-04-30 08:53:00
2:53 AM,45.0,34.0,65,30.18,10.0,Calm,Calm,-,N/A,,Overcast,0,2013-04-30 09:53:00
3:15 AM,44.6,33.8,66,30.16,10.0,South,4.6,-,N/A,,Overcast,180,2013-04-30 10:15:00
3:53 AM,44.1,35.1,71,30.19,10.0,Variable,3.5,-,N/A,,Overcast,0,2013-04-30 10:53:00
4:33 AM,44.6,33.8,66,30.17,10.0,WSW,3.5,-,N/A,,Overcast,250,2013-04-30 11:33:00
4:53 AM,44.1,34.0,68,30.20,10.0,Calm,Calm,-,N/A,,Overcast,0,2013-04-30 11:53:00
5:53 AM,44.1,33.1,65,30.22,10.0,Calm,Calm,-,N/A,,Overcast,0,2013-04-30 12:53:00
6:53 AM,44.1,32.0,63,30.24,10.0,Calm,Calm,-,N/A,,Overcast,0,2013-04-30 13:53:00
7:53 AM,44.1,32.0,63,30.26,10.0,Variable,5.8,-,N/A,,Mostly Cloudy,0,2013-04-30 14:53:00
8:38 AM,46.4,33.8,62,30.24,10.0,Variable,6.9,-,0.00,,Overcast,0,2013-04-30 15:38:00
8:53 AM,45.0,33.1,63,30.28,10.0,Variable,3.5,-,0.00,,Overcast,0,2013-04-30 15:53:00
9:15 AM,44.6,33.8,66,30.26,10.0,West,6.9,-,N/A,,Overcast,280,2013-04-30 16:15:00
9:53 AM,46.0,34.0,63,30.30,10.0,Variable,4.6,-,N/A,,Mostly Cloudy,0,2013-04-30 16:53:00
10:53 AM,46.9,30.9,54,30.31,10.0,WNW,8.1,-,N/A,,Mostly Cloudy,290,2013-04-30 17:53:00
11:53 AM,48.0,33.1,56,30.34,10.0,Variable,4.6,-,N/A,,Mostly Cloudy,0,2013-04-30 18:53:00
12:53 PM,48.0,34.0,58,30.35,10.0,Variable,4.6,-,N/A,,Mostly Cloudy,0,2013-04-30 19:53:00
1:53 PM,48.9,33.1,54,30.35,10.0,West,4.6,-,N/A,,Overcast,280,2013-04-30 20:53:00
2:53 PM,51.1,33.1,50,30.38,10.0,Calm,Calm,-,N/A,,Scattered Clouds,0,2013-04-30 21:53:00
3:53 PM,52.0,32.0,47,30.38,10.0,South,9.2,-,N/A,,Clear,170,2013-04-30 22:53:00
4:53 PM,52.0,33.1,49,30.38,10.0,Variable,5.8,-,N/A,,Clear,0,2013-04-30 23:53:00
5:53 PM,52.0,30.0,43,30.40,10.0,Variable,4.6,-,N/A,,Clear,0,2013-05-01 00:53:00
6:53 PM,51.1,28.9,43,30.40,10.0,Calm,Calm,-,N/A,,Clear,0,2013-05-01 01:53:00
7:53 PM,46.9,36.0,66,30.40,10.0,Calm,Calm,-,N/A,,Clear,0,2013-05-01 02:53:00
8:53 PM,44.1,36.0,73,30.42,10.0,South,3.5,-,N/A,,Clear,180,2013-05-01 03:53:00
9:53 PM,43.0,36.0,76,30.44,10.0,South,3.5,-,N/A,,Clear,170,2013-05-01 04:53:00
10:53 PM,45.0,36.0,71,30.45,10.0,SSE,5.8,-,N/A,,Clear,160,2013-05-01 05:53:00
11:53 PM,43.0,34.0,71,30.46,10.0,Calm,Calm,-,N/A,,Clear,0,2013-05-01 06:53:00